Time;durP1;ratioP1;P1;durP2;ratioP2;P2;SDS_P1;SDS_P2;PMS_P1;PMS_P2;Temp;Humidity;BMP_temperature;BMP_pressure;BME280_temperature;BME280_humidity;BME280_pressure;Samples;Min_cycle;Max_cycle;Signal;HPM_P1;HPM_P2
2021/11/20 00:12:38;;;;;;;4.13;1.58;;;;;;;;;;6204520;22;20511;31
2021/11/20 00:19:22;;;;;;;6.97;2.00;;;;;;;;;;6260319;22;20528;31
2021/11/20 00:35:26;;;;;;;7.80;1.80;;;;;;;;;;6134657;23;20200;31
2021/11/20 00:39:39;;;;;;;4.20;1.60;;;;;;;;;;6289786;22;20520;31
2021/11/20 00:55:23;;;;;;;7.22;1.40;;;;;;;;;;6135998;23;20203;31
2021/11/20 00:59:38;;;;;;;6.30;1.42;;;;;;;;;;6322300;22;20517;31
2021/11/20 01:15:38;;;;;;;8.32;2.13;;;;;;;;;;6226715;22;20201;31
2021/11/20 01:34:05;;;;;;;3.40;1.45;;;;;;;;;;6174830;22;20549;-60
2021/11/20 01:36:31;;;;;;;8.23;1.45;;;;;;;;;;6148173;23;20192;31
2021/11/20 01:43:27;;;;;;;5.13;1.50;;;;;;;;;;5880428;22;20285;31
2021/11/20 01:50:16;;;;;;;12.45;1.90;;;;;;;;;;6225546;22;20201;31
2021/11/20 01:54:49;;;;;;;6.72;1.40;;;;;;;;;;6258814;22;20547;31
2021/11/20 02:01:55;;;;;;;5.53;1.92;;;;;;;;;;6289672;22;20551;31
2021/11/20 02:11:17;;;;;;;6.40;1.60;;;;;;;;;;6224341;22;20201;31
2021/11/20 02:25:20;;;;;;;5.47;1.30;;;;;;;;;;6318817;22;22248;31
2021/11/20 02:36:26;;;;;;;6.43;1.30;;;;;;;;;;6212242;22;20281;31
2021/11/20 02:45:43;;;;;;;7.68;1.92;;;;;;;;;;6171266;23;20199;31
2021/11/20 02:56:53;;;;;;;5.13;1.30;;;;;;;;;;6168528;22;20539;31
2021/11/20 02:59:19;;;;;;;5.68;1.23;;;;;;;;;;6134442;23;20200;31
2021/11/20 03:33:38;;;;;;;2.90;1.10;;;;;;;;;;6224662;22;20218;31
2021/11/20 03:40:59;;;;;;;3.50;0.88;;;;;;;;;;6201693;22;20211;31
2021/11/20 03:45:25;;;;;;;1.52;0.93;;;;;;;;;;6167086;22;20522;31
2021/11/20 03:55:27;;;;;;;4.35;1.10;;;;;;;;;;6319310;22;20207;31
2021/11/20 04:13:41;;;;;;;4.95;0.82;;;;;;;;;;6259308;22;20555;31
2021/11/20 04:16:07;;;;;;;3.00;1.00;;;;;;;;;;6226298;22;20190;31
2021/11/20 04:27:08;;;;;;;4.20;1.30;;;;;;;;;;6323568;22;20509;31
2021/11/20 05:07:52;;;;;;;3.78;1.52;;;;;;;;;;6174571;22;20535;-61
2021/11/20 05:35:08;;;;;;;3.10;0.90;;;;;;;;;;6174061;22;20546;31
2021/11/20 05:37:34;;;;;;;3.42;1.00;;;;;;;;;;6171919;23;20195;31
2021/11/20 05:56:02;;;;;;;3.38;0.77;;;;;;;;;;6175686;22;20562;31
2021/11/20 06:05:05;;;;;;;3.72;1.33;;;;;;;;;;6135722;23;20203;31
2021/11/20 06:11:48;;;;;;;2.97;1.48;;;;;;;;;;6294465;22;20204;31
2021/11/20 06:16:16;;;;;;;4.00;1.73;;;;;;;;;;6175999;22;20570;31
2021/11/20 06:22:47;;;;;;;3.80;1.25;;;;;;;;;;6193571;22;20535;-59
2021/11/20 06:25:14;;;;;;;2.55;1.38;;;;;;;;;;6194573;23;20433;-59
2021/11/20 06:27:40;;;;;;;2.25;1.20;;;;;;;;;;6194430;23;20129;-59
2021/11/20 06:30:08;;;;;;;3.83;1.27;;;;;;;;;;6194448;23;20145;-59
2021/11/20 06:32:34;;;;;;;4.38;1.08;;;;;;;;;;6194263;23;20152;-58
2021/11/20 06:35:00;;;;;;;2.80;1.20;;;;;;;;;;6194255;23;20141;-58
2021/11/20 06:37:26;;;;;;;2.85;1.75;;;;;;;;;;6193984;23;20144;-58
2021/11/20 06:39:52;;;;;;;5.03;1.50;;;;;;;;;;6194294;23;20583;-58
2021/11/20 06:42:18;;;;;;;2.83;1.38;;;;;;;;;;6193784;23;20229;-59
2021/11/20 06:44:44;;;;;;;3.72;1.40;;;;;;;;;;6193937;23;20141;-58
2021/11/20 06:47:10;;;;;;;3.97;1.30;;;;;;;;;;6193867;23;20141;-58
2021/11/20 06:49:36;;;;;;;5.93;1.10;;;;;;;;;;6194146;23;20429;-58
2021/11/20 06:52:02;;;;;;;6.20;1.30;;;;;;;;;;6194109;23;20434;-58
2021/11/20 06:54:28;;;;;;;4.93;1.27;;;;;;;;;;6194025;23;20146;-59
2021/11/20 06:57:04;;;;;;;6.20;1.88;;;;;;;;;;6193911;23;20420;-57
2021/11/20 07:02:28;;;;;;;3.15;1.17;;;;;;;;;;6193968;23;20324;-60
2021/11/20 07:04:54;;;;;;;3.65;1.25;;;;;;;;;;6194194;23;20161;-59
2021/11/20 07:07:20;;;;;;;5.40;1.38;;;;;;;;;;6193952;23;20172;-57
2021/11/20 07:09:48;;;;;;;4.40;1.20;;;;;;;;;;6193651;23;20213;-58
2021/11/20 07:12:14;;;;;;;6.55;1.40;;;;;;;;;;6193914;23;20141;-58
2021/11/20 07:14:40;;;;;;;4.20;1.13;;;;;;;;;;6193540;23;20176;-58
2021/11/20 07:17:06;;;;;;;3.45;1.33;;;;;;;;;;6193470;23;20173;-57
2021/11/20 07:19:32;;;;;;;3.53;1.30;;;;;;;;;;6193474;23;20145;-58
2021/11/20 07:21:58;;;;;;;1.88;1.13;;;;;;;;;;6193103;23;20531;-58
2021/11/20 07:24:24;;;;;;;4.85;1.58;;;;;;;;;;6193355;23;20141;-58
2021/11/20 07:26:50;;;;;;;6.03;1.63;;;;;;;;;;6194252;23;20145;-60
2021/11/20 07:29:17;;;;;;;2.17;1.33;;;;;;;;;;6193119;23;20145;-59
2021/11/20 07:31:43;;;;;;;7.43;2.13;;;;;;;;;;6193801;23;20149;-60
2021/11/20 07:34:10;;;;;;;8.57;2.05;;;;;;;;;;6186647;23;20176;-58
2021/11/20 07:36:36;;;;;;;6.35;1.67;;;;;;;;;;6186825;23;20156;-59
2021/11/20 07:39:04;;;;;;;7.82;1.63;;;;;;;;;;6187018;23;20224;-59
2021/11/20 07:41:30;;;;;;;4.25;1.55;;;;;;;;;;6186639;23;20161;-58
2021/11/20 07:43:56;;;;;;;9.98;2.40;;;;;;;;;;6186738;23;20142;-58
2021/11/20 07:46:22;;;;;;;6.53;2.45;;;;;;;;;;6186840;23;20141;-57
2021/11/20 07:48:48;;;;;;;7.28;1.77;;;;;;;;;;6186377;23;20149;-59
2021/11/20 07:51:15;;;;;;;7.68;2.30;;;;;;;;;;6186901;23;20141;-59
2021/11/20 07:53:42;;;;;;;8.57;2.60;;;;;;;;;;6186920;23;20483;-58
2021/11/20 07:56:09;;;;;;;12.80;2.53;;;;;;;;;;6187009;23;20145;-59
2021/11/20 07:58:36;;;;;;;10.98;2.70;;;;;;;;;;6186689;23;20236;-59
2021/11/20 08:01:03;;;;;;;8.32;2.55;;;;;;;;;;6186466;23;20161;-59
2021/11/20 08:03:29;;;;;;;5.90;2.40;;;;;;;;;;6186765;23;20149;-59
2021/11/20 08:05:56;;;;;;;6.18;2.05;;;;;;;;;;6186632;23;20138;-59
2021/11/20 08:08:22;;;;;;;9.30;2.92;;;;;;;;;;6186924;23;20145;-59
2021/11/20 08:10:49;;;;;;;10.23;2.42;;;;;;;;;;6186668;23;20145;-59
2021/11/20 08:13:15;;;;;;;8.35;2.40;;;;;;;;;;6186912;23;20216;-57
2021/11/20 08:15:41;;;;;;;9.27;3.25;;;;;;;;;;6187383;23;20176;-57
2021/11/20 08:18:07;;;;;;;7.90;2.38;;;;;;;;;;6186580;23;20146;-59
2021/11/20 08:20:36;;;;;;;7.22;2.75;;;;;;;;;;6186926;23;20141;-59
2021/11/20 08:23:02;;;;;;;9.25;2.80;;;;;;;;;;6186775;23;20161;-58
2021/11/20 08:25:29;;;;;;;12.45;2.83;;;;;;;;;;6186839;23;20172;-58
2021/11/20 08:27:56;;;;;;;8.60;2.70;;;;;;;;;;6186761;23;20498;-59
2021/11/20 08:30:24;;;;;;;8.70;3.08;;;;;;;;;;6186535;23;20149;-59
2021/11/20 08:32:51;;;;;;;7.57;2.63;;;;;;;;;;6186564;23;20153;-57
2021/11/20 08:35:18;;;;;;;9.23;3.03;;;;;;;;;;6186354;23;20542;-59
2021/11/20 08:37:44;;;;;;;7.95;3.28;;;;;;;;;;6186342;23;20141;-57
2021/11/20 08:40:13;;;;;;;9.30;2.70;;;;;;;;;;6186410;23;20149;-59
2021/11/20 08:42:40;;;;;;;10.23;2.75;;;;;;;;;;6186788;23;20169;-58
2021/11/20 08:45:07;;;;;;;11.38;3.33;;;;;;;;;;6185537;23;20229;-57
2021/11/20 08:47:33;;;;;;;7.10;2.92;;;;;;;;;;6186245;23;20149;-59
2021/11/20 08:49:59;;;;;;;10.70;3.30;;;;;;;;;;6186091;23;20156;-59
2021/11/20 08:52:25;;;;;;;9.38;3.65;;;;;;;;;;6186087;23;20228;-57
2021/11/20 08:54:56;;;;;;;10.15;3.83;;;;;;;;;;6185907;23;20204;-57
2021/11/20 08:57:22;;;;;;;11.63;3.80;;;;;;;;;;6186057;23;20177;-58
2021/11/20 08:59:48;;;;;;;9.13;3.92;;;;;;;;;;6186146;23;20221;-56
2021/11/20 09:02:17;;;;;;;11.18;4.15;;;;;;;;;;6186343;23;20196;-57
2021/11/20 09:05:09;;;;;;;9.82;3.20;;;;;;;;;;6186035;23;20152;-57
2021/11/20 09:07:45;;;;;;;8.02;3.42;;;;;;;;;;6181158;23;20208;-56
2021/11/20 09:10:18;;;;;;;9.15;3.47;;;;;;;;;;6186209;23;20149;-59
2021/11/20 09:12:44;;;;;;;6.68;3.30;;;;;;;;;;6186378;23;20133;-59
2021/11/20 09:15:19;;;;;;;8.50;3.42;;;;;;;;;;6186343;23;20505;-58
2021/11/20 09:17:47;;;;;;;11.40;3.75;;;;;;;;;;6185845;23;20148;-56
2021/11/20 09:20:13;;;;;;;8.00;3.50;;;;;;;;;;6185777;23;20576;-55
2021/11/20 09:22:39;;;;;;;9.80;3.30;;;;;;;;;;6185803;23;20185;-59
2021/11/20 09:25:07;;;;;;;10.77;3.50;;;;;;;;;;6185758;23;20148;-58
2021/11/20 09:27:33;;;;;;;6.40;3.20;;;;;;;;;;6185773;23;20153;-58
2021/11/20 09:29:58;;;;;;;6.65;3.00;;;;;;;;;;6185668;23;20146;-59
2021/11/20 09:32:24;;;;;;;7.68;2.90;;;;;;;;;;6185937;23;20142;-56
2021/11/20 09:34:51;;;;;;;9.05;2.92;;;;;;;;;;6185940;23;20149;-58
2021/11/20 09:37:17;;;;;;;7.75;3.33;;;;;;;;;;6186041;23;20232;-58
2021/11/20 09:39:43;;;;;;;9.48;2.92;;;;;;;;;;6186168;23;20243;-57
2021/11/20 09:42:09;;;;;;;7.65;2.90;;;;;;;;;;6185732;23;20165;-57
2021/11/20 09:44:37;;;;;;;9.07;3.70;;;;;;;;;;6185868;23;20188;-58
2021/11/20 09:47:10;;;;;;;8.98;3.10;;;;;;;;;;6186156;23;20141;-59
2021/11/20 09:49:38;;;;;;;5.93;2.90;;;;;;;;;;6186070;23;20515;-59
2021/11/20 09:52:06;;;;;;;6.90;3.00;;;;;;;;;;6186004;23;20550;-56
2021/11/20 09:54:35;;;;;;;8.05;3.33;;;;;;;;;;6185706;23;20228;-59
2021/11/20 09:57:10;;;;;;;7.57;3.20;;;;;;;;;;6186245;23;20228;-59
2021/11/20 09:59:45;;;;;;;5.80;3.28;;;;;;;;;;6185822;23;20145;-58
2021/11/20 10:02:14;;;;;;;7.57;3.38;;;;;;;;;;6186151;23;20173;-60
2021/11/20 10:04:52;;;;;;;9.02;3.53;;;;;;;;;;6185764;23;20172;-60
2021/11/20 10:07:30;;;;;;;7.45;4.05;;;;;;;;;;6186146;23;20149;-60
2021/11/20 10:10:03;;;;;;;9.25;3.53;;;;;;;;;;6185602;23;20142;-59
2021/11/20 10:12:37;;;;;;;8.63;4.15;;;;;;;;;;6186143;23;20438;-59
2021/11/20 10:15:15;;;;;;;7.15;3.50;;;;;;;;;;6184635;23;20137;-59
2021/11/20 10:17:43;;;;;;;9.48;4.00;;;;;;;;;;6186531;23;20153;-60
2021/11/20 10:20:22;;;;;;;8.13;3.92;;;;;;;;;;6186427;23;20177;-60
2021/11/20 10:22:51;;;;;;;11.07;4.60;;;;;;;;;;6185841;23;20365;-59
2021/11/20 10:25:21;;;;;;;8.85;3.85;;;;;;;;;;6185663;23;20138;-60
2021/11/20 10:27:57;;;;;;;8.02;4.25;;;;;;;;;;6186032;23;20198;-59
2021/11/20 10:30:27;;;;;;;8.07;3.80;;;;;;;;;;6185917;23;20215;-60
2021/11/20 10:33:12;;;;;;;8.38;3.92;;;;;;;;;;6185843;23;20576;-59
2021/11/20 10:35:38;;;;;;;8.07;3.80;;;;;;;;;;6185565;23;20268;-59
2021/11/20 10:38:13;;;;;;;9.90;4.20;;;;;;;;;;6185511;23;20166;-60
2021/11/20 10:40:45;;;;;;;7.50;3.65;;;;;;;;;;6185244;23;20152;-59
2021/11/20 10:43:25;;;;;;;8.38;4.07;;;;;;;;;;6185366;23;20142;-58
2021/11/20 10:46:18;;;;;;;6.03;3.78;;;;;;;;;;6185602;23;20481;-61
2021/11/20 10:48:47;;;;;;;6.95;3.30;;;;;;;;;;6185719;23;20209;-60
2021/11/20 10:51:25;;;;;;;8.68;3.30;;;;;;;;;;6185463;23;20142;-60
2021/11/20 10:53:54;;;;;;;12.07;3.85;;;;;;;;;;6185752;23;20188;-60
2021/11/20 10:56:20;;;;;;;8.55;3.55;;;;;;;;;;6185671;23;20160;-60
2021/11/20 10:59:10;;;;;;;6.22;3.63;;;;;;;;;;6185809;23;20154;-61
2021/11/20 11:01:54;;;;;;;9.50;3.90;;;;;;;;;;6130856;23;20177;-60
2021/11/20 11:04:39;;;;;;;6.07;3.63;;;;;;;;;;6185554;23;20624;-60
2021/11/20 11:07:05;;;;;;;7.03;3.60;;;;;;;;;;6185128;23;20542;-61
2021/11/20 11:09:36;;;;;;;7.20;3.60;;;;;;;;;;6186801;23;20149;-59
2021/11/20 11:12:16;;;;;;;10.40;3.92;;;;;;;;;;6187228;23;20155;-60
2021/11/20 11:15:01;;;;;;;9.52;3.60;;;;;;;;;;6187562;23;20201;-61
2021/11/20 11:17:54;;;;;;;10.98;3.70;;;;;;;;;;6187027;23;20165;-60
2021/11/20 11:20:38;;;;;;;7.63;3.80;;;;;;;;;;6187331;23;20146;-60
2021/11/20 11:23:18;;;;;;;9.77;3.60;;;;;;;;;;6187195;23;20157;-60
2021/11/20 11:25:47;;;;;;;10.00;3.70;;;;;;;;;;6186899;23;20165;-61
2021/11/20 11:28:16;;;;;;;9.38;3.83;;;;;;;;;;6187007;23;20169;-61
2021/11/20 11:30:42;;;;;;;10.20;3.88;;;;;;;;;;6186985;23;20149;-60
2021/11/20 11:33:08;;;;;;;10.88;4.00;;;;;;;;;;6187202;23;20145;-59
2021/11/20 11:35:40;;;;;;;12.55;3.83;;;;;;;;;;6186852;23;20152;-61
2021/11/20 11:40:44;;;;;;;6.85;3.60;;;;;;;;;;6134823;23;20414;-60
2021/11/20 11:43:19;;;;;;;9.55;4.40;;;;;;;;;;6187135;23;20141;-60
2021/11/20 11:45:48;;;;;;;8.40;3.55;;;;;;;;;;6186730;23;20488;-60
2021/11/20 11:48:40;;;;;;;7.93;3.90;;;;;;;;;;6186789;23;20546;-60
2021/11/20 11:51:25;;;;;;;6.72;3.50;;;;;;;;;;6141885;23;20181;-60
2021/11/20 11:54:09;;;;;;;5.90;3.50;;;;;;;;;;6187077;23;20161;-60
2021/11/20 11:56:46;;;;;;;10.88;4.10;;;;;;;;;;6186974;23;20141;-60
2021/11/20 11:59:20;;;;;;;4.38;3.63;;;;;;;;;;6187293;23;20205;-59
2021/11/20 12:01:46;;;;;;;9.40;4.00;;;;;;;;;;6187039;23;20166;-59
2021/11/20 12:04:18;;;;;;;6.25;3.55;;;;;;;;;;6187289;23;20501;-60
2021/11/20 12:06:48;;;;;;;9.50;3.22;;;;;;;;;;6186981;23;20130;-60
2021/11/20 12:09:17;;;;;;;5.20;3.60;;;;;;;;;;6186944;23;20142;-60
2021/11/20 12:11:44;;;;;;;9.95;3.40;;;;;;;;;;6187085;23;20145;-60
2021/11/20 12:14:10;;;;;;;8.57;3.92;;;;;;;;;;6186902;23;20156;-59
2021/11/20 12:16:56;;;;;;;7.90;3.67;;;;;;;;;;6187001;23;20146;-61
2021/11/20 12:19:37;;;;;;;6.65;3.65;;;;;;;;;;6187323;23;20157;-60
2021/11/20 12:22:28;;;;;;;7.30;2.90;;;;;;;;;;6187020;23;20162;-60
2021/11/20 12:24:58;;;;;;;7.43;3.42;;;;;;;;;;6187258;23;20142;-60
2021/11/20 12:27:32;;;;;;;5.95;2.88;;;;;;;;;;6186773;23;20138;-60
2021/11/20 12:30:13;;;;;;;10.63;3.15;;;;;;;;;;6186751;23;20146;-60
2021/11/20 12:32:45;;;;;;;7.85;2.78;;;;;;;;;;6186813;23;20165;-59
2021/11/20 12:35:21;;;;;;;5.75;2.85;;;;;;;;;;6186580;23;20442;-58
2021/11/20 12:37:58;;;;;;;10.35;2.60;;;;;;;;;;6186828;23;20137;-58
2021/11/20 12:40:26;;;;;;;9.15;2.80;;;;;;;;;;6186402;23;20606;-60
2021/11/20 12:42:58;;;;;;;6.72;2.80;;;;;;;;;;6186112;23;20144;-57
2021/11/20 12:45:43;;;;;;;7.00;2.92;;;;;;;;;;6186189;23;20130;-59
2021/11/20 12:48:27;;;;;;;6.68;2.70;;;;;;;;;;6186138;23;20463;-59
2021/11/20 12:51:01;;;;;;;7.18;2.47;;;;;;;;;;6185930;23;20237;-59
2021/11/20 12:53:33;;;;;;;8.73;2.63;;;;;;;;;;6186239;23;20141;-58
2021/11/20 12:56:05;;;;;;;4.88;2.50;;;;;;;;;;6186312;23;20343;-59
2021/11/20 12:58:34;;;;;;;4.65;2.53;;;;;;;;;;6185905;23;20627;-59
2021/11/20 13:01:00;;;;;;;7.72;2.70;;;;;;;;;;6186283;23;20250;-59
2021/11/20 13:03:30;;;;;;;4.90;2.33;;;;;;;;;;6186441;23;20157;-58
2021/11/20 13:05:58;;;;;;;4.60;2.47;;;;;;;;;;6186354;23;20142;-58
2021/11/20 13:08:30;;;;;;;5.88;2.17;;;;;;;;;;6186246;23;20161;-58
2021/11/20 13:11:05;;;;;;;5.53;2.38;;;;;;;;;;6186349;23;20184;-57
2021/11/20 13:13:31;;;;;;;5.35;2.30;;;;;;;;;;6186074;23;20203;-57
2021/11/20 13:16:16;;;;;;;2.45;2.00;;;;;;;;;;6186023;23;20141;-58
2021/11/20 13:19:03;;;;;;;6.15;2.35;;;;;;;;;;6185894;23;20628;-59
2021/11/20 13:21:39;;;;;;;5.38;2.40;;;;;;;;;;6125837;23;20524;-57
2021/11/20 13:24:25;;;;;;;3.58;2.53;;;;;;;;;;6186095;23;20141;-59
2021/11/20 13:27:02;;;;;;;4.57;2.30;;;;;;;;;;6185817;23;20137;-59
2021/11/20 13:29:30;;;;;;;6.65;2.42;;;;;;;;;;6186101;23;20223;-59
2021/11/20 13:31:56;;;;;;;4.03;2.22;;;;;;;;;;6185397;23;20145;-57
2021/11/20 13:34:22;;;;;;;4.72;2.72;;;;;;;;;;6186209;23;20184;-57
2021/11/20 13:36:48;;;;;;;5.88;2.60;;;;;;;;;;6185608;23;20572;-58
2021/11/20 13:39:14;;;;;;;4.35;2.40;;;;;;;;;;6185892;23;20223;-59
2021/11/20 13:41:40;;;;;;;5.05;2.33;;;;;;;;;;6185556;23;20231;-58
2021/11/20 13:44:07;;;;;;;4.95;2.42;;;;;;;;;;6185685;23;20150;-59
2021/11/20 13:46:33;;;;;;;4.65;2.47;;;;;;;;;;6185371;23;20173;-60
2021/11/20 13:49:04;;;;;;;7.72;3.15;;;;;;;;;;6185634;23;20149;-59
2021/11/20 13:51:31;;;;;;;4.38;2.70;;;;;;;;;;6186011;23;20199;-58
2021/11/20 13:53:58;;;;;;;5.30;2.67;;;;;;;;;;6186194;23;20146;-58
2021/11/20 13:56:26;;;;;;;4.30;2.40;;;;;;;;;;6185477;23;20141;-58
2021/11/20 13:58:56;;;;;;;3.63;2.78;;;;;;;;;;6185923;23;20153;-58
2021/11/20 14:01:22;;;;;;;5.45;2.83;;;;;;;;;;6185965;23;20169;-58
2021/11/20 14:03:56;;;;;;;6.60;2.70;;;;;;;;;;6185870;23;20450;-57
2021/11/20 14:06:22;;;;;;;4.97;2.65;;;;;;;;;;6185839;23;20248;-58
2021/11/20 14:08:48;;;;;;;5.20;3.08;;;;;;;;;;6185834;23;20145;-58
2021/11/20 14:11:18;;;;;;;3.05;2.67;;;;;;;;;;6185893;23;20240;-58
2021/11/20 14:13:49;;;;;;;7.47;3.60;;;;;;;;;;6186129;23;20130;-58
2021/11/20 14:16:15;;;;;;;4.82;2.92;;;;;;;;;;6185995;23;20188;-59
2021/11/20 14:18:46;;;;;;;4.78;3.20;;;;;;;;;;6185839;23;20157;-58
2021/11/20 14:21:13;;;;;;;7.32;3.10;;;;;;;;;;6185960;23;20471;-58
2021/11/20 14:23:44;;;;;;;4.47;3.33;;;;;;;;;;6185570;23;20143;-59
2021/11/20 14:26:10;;;;;;;15.75;4.30;;;;;;;;;;6185928;23;20459;-59
2021/11/20 14:28:44;;;;;;;8.13;3.90;;;;;;;;;;6185762;23;20141;-57
2021/11/20 14:31:15;;;;;;;6.53;4.47;;;;;;;;;;6185450;23;20576;-58
2021/11/20 14:33:50;;;;;;;8.73;4.32;;;;;;;;;;6185652;23;20442;-59
2021/11/20 14:36:16;;;;;;;6.25;4.38;;;;;;;;;;6185355;23;20200;-59
2021/11/20 14:38:50;;;;;;;5.53;4.00;;;;;;;;;;6185705;23;20461;-58
2021/11/20 14:41:16;;;;;;;6.30;4.22;;;;;;;;;;6185356;23;20244;-57
2021/11/20 14:43:42;;;;;;;6.00;3.60;;;;;;;;;;6186669;23;20150;-58
2021/11/20 14:46:15;;;;;;;5.15;3.80;;;;;;;;;;6187103;23;20153;-59
2021/11/20 14:48:41;;;;;;;6.93;4.47;;;;;;;;;;6186965;23;20264;-59
2021/11/20 14:51:07;;;;;;;7.80;4.50;;;;;;;;;;6187315;23;20152;-57
2021/11/20 14:53:34;;;;;;;7.15;4.93;;;;;;;;;;6186881;23;20557;-59
2021/11/20 14:56:17;;;;;;;6.60;4.45;;;;;;;;;;6187338;23;20243;-59
2021/11/20 14:58:44;;;;;;;6.22;4.82;;;;;;;;;;6187286;23;20256;-58
2021/11/20 15:01:11;;;;;;;7.07;4.57;;;;;;;;;;6186678;23;20474;-56
2021/11/20 15:03:38;;;;;;;5.75;5.05;;;;;;;;;;6186967;23;20195;-57
2021/11/20 15:06:06;;;;;;;7.55;5.03;;;;;;;;;;6188177;23;20224;-59
2021/11/20 15:08:32;;;;;;;6.82;4.68;;;;;;;;;;6186794;23;20142;-57
2021/11/20 15:10:58;;;;;;;7.30;5.40;;;;;;;;;;6186985;23;20220;-57
2021/11/20 15:13:25;;;;;;;7.05;5.25;;;;;;;;;;6186955;23;20152;-59
2021/11/20 15:15:51;;;;;;;8.45;5.85;;;;;;;;;;6186798;23;20538;-59
2021/11/20 15:18:17;;;;;;;10.77;5.90;;;;;;;;;;6186629;23;20146;-58
2021/11/20 15:20:43;;;;;;;8.30;6.47;;;;;;;;;;6186587;23;20219;-58
2021/11/20 15:23:09;;;;;;;9.85;5.75;;;;;;;;;;6186885;23;20169;-59
2021/11/20 15:25:35;;;;;;;8.23;6.57;;;;;;;;;;6187211;23;20145;-58
2021/11/20 15:28:01;;;;;;;10.25;6.10;;;;;;;;;;6186553;23;20169;-58
2021/11/20 15:30:28;;;;;;;9.05;6.45;;;;;;;;;;6186457;23;20146;-58
2021/11/20 15:32:54;;;;;;;9.43;6.68;;;;;;;;;;6186703;23;20245;-58
2021/11/20 15:35:20;;;;;;;11.50;7.13;;;;;;;;;;6186915;23;20188;-58
2021/11/20 15:37:47;;;;;;;12.75;6.57;;;;;;;;;;6186619;23;20142;-55
2021/11/20 15:40:13;;;;;;;10.63;7.03;;;;;;;;;;6187036;23;20168;-57
2021/11/20 15:42:40;;;;;;;9.38;6.53;;;;;;;;;;6186602;23;20173;-58
2021/11/20 15:45:07;;;;;;;8.75;6.82;;;;;;;;;;6187453;23;20146;-58
2021/11/20 15:47:34;;;;;;;9.77;7.00;;;;;;;;;;6187102;23;20216;-56
2021/11/20 15:50:00;;;;;;;8.50;6.95;;;;;;;;;;6187602;23;20145;-56
2021/11/20 15:52:26;;;;;;;9.32;6.97;;;;;;;;;;6186482;23;20200;-58
2021/11/20 15:54:52;;;;;;;9.27;7.40;;;;;;;;;;6186169;23;20146;-57
2021/11/20 15:57:18;;;;;;;10.40;8.10;;;;;;;;;;6186686;23;20153;-58
2021/11/20 15:59:44;;;;;;;11.57;7.40;;;;;;;;;;6186459;23;20531;-58
2021/11/20 16:35:10;;;;;;;12.00;9.38;;;;;;;;;;6174141;23;20206;31
2021/11/20 16:39:37;;;;;;;11.75;9.50;;;;;;;;;;6177845;22;20694;31
2021/11/20 17:00:01;;;;;;;11.95;9.20;;;;;;;;;;6261539;22;20509;31
2021/11/20 17:06:55;;;;;;;12.00;10.13;;;;;;;;;;6259862;22;20559;31
2021/11/20 17:14:05;;;;;;;12.38;9.55;;;;;;;;;;6293289;22;20625;31
2021/11/20 17:23:18;;;;;;;13.25;10.05;;;;;;;;;;6256848;22;20218;31
2021/11/20 17:34:35;;;;;;;14.70;9.10;;;;;;;;;;6204159;22;20521;-58
2021/11/20 17:44:10;;;;;;;12.25;9.32;;;;;;;;;;6226415;22;20206;31
2021/11/20 17:55:02;;;;;;;11.48;8.90;;;;;;;;;;6322817;22;20534;31
2021/11/20 18:31:14;;;;;;;10.18;6.93;;;;;;;;;;6298000;22;20200;31
2021/11/20 18:42:15;;;;;;;6.90;5.65;;;;;;;;;;6233420;22;21790;-60
2021/11/20 18:51:50;;;;;;;8.35;5.35;;;;;;;;;;6151696;22;20207;31
2021/11/20 18:58:39;;;;;;;6.57;5.38;;;;;;;;;;6204384;22;20221;31
2021/11/20 19:26:42;;;;;;;6.28;5.20;;;;;;;;;;6345667;22;20203;31
2021/11/20 19:47:20;;;;;;;8.18;5.93;;;;;;;;;;6257272;22;20204;31
2021/11/20 20:12:17;;;;;;;8.27;5.30;;;;;;;;;;6168877;22;20531;31
2021/11/20 20:41:59;;;;;;;7.00;5.30;;;;;;;;;;6205842;22;20205;31
2021/11/20 20:53:14;;;;;;;7.80;5.53;;;;;;;;;;6262380;22;22049;31
2021/11/20 21:00:09;;;;;;;12.15;5.65;;;;;;;;;;6206574;22;20549;31
2021/11/20 21:09:29;;;;;;;8.73;5.82;;;;;;;;;;6229017;22;20204;31
2021/11/20 21:34:46;;;;;;;8.25;5.00;;;;;;;;;;6260121;22;20539;31
2021/11/20 21:41:50;;;;;;;6.75;4.63;;;;;;;;;;6267870;22;20274;31
2021/11/20 21:58:03;;;;;;;7.47;4.78;;;;;;;;;;6287672;22;20574;31
2021/11/20 22:11:32;;;;;;;5.15;3.33;;;;;;;;;;6259207;22;20200;31
2021/11/20 22:15:58;;;;;;;5.97;3.42;;;;;;;;;;6260351;22;20263;31
2021/11/20 22:22:35;;;;;;;3.65;2.60;;;;;;;;;;6322781;22;20457;31
2021/11/20 22:32:04;;;;;;;3.45;2.70;;;;;;;;;;6209982;22;20206;31
2021/11/20 22:52:33;;;;;;;4.05;2.75;;;;;;;;;;6202571;22;20205;31
2021/11/20 23:06:05;;;;;;;6.63;3.60;;;;;;;;;;6287604;22;20990;31
2021/11/20 23:12:43;;;;;;;5.68;3.40;;;;;;;;;;6194857;22;20206;31
2021/11/20 23:17:24;;;;;;;6.85;3.88;;;;;;;;;;6289317;22;23399;31
2021/11/20 23:26:40;;;;;;;6.57;3.78;;;;;;;;;;6289264;22;21023;31
2021/11/20 23:40:24;;;;;;;6.88;3.20;;;;;;;;;;6201820;22;20218;31
2021/11/20 23:47:06;;;;;;;3.70;3.22;;;;;;;;;;6263307;22;20823;31
